Weather History for KPQI - November, 2011

Change the Weather History Date:

Monday, November 28, 2011

  Actual Average Record
Temperature  
Mean Temperature 45 °F -  
Max Temperature 53 °F 33 °F 58 °F (1950)
Min Temperature 37 °F 21 °F -7 °F (1997)
Degree Days  
Heating Degree Days 20    
Moisture  
Dew Point 40 °F    
Average Humidity 82    
Maximum Humidity 93    
Minimum Humidity 61    
Precipitation  
Precipitation 0.05 in - - ()
Sea Level Pressure  
Sea Level Pressure 29.83 in    
Wind  
Wind Speed 12 mph (SSW)    
Max Wind Speed 21 mph    
Max Gust Speed 30 mph    
Visibility 10 miles    
Events      
Averages and records for this station are not official NWS values.
T = Trace of Precipitation, MM = Missing Value Source: NWS Daily Summary

Daily Weather History Graph

Daily Weather History Graph

Search for Another Location

Airport or City:

Trip Planner

Search our weather history database for the weather conditions in past years. The results will help you decide how hot, cold, wet, or windy it might be!

Date:

Astronomy

Nov. 28, 2011 Rise Set
Actual Time 6:51 AM EST 3:47 PM EST
Civil Twilight 6:17 AM EST 4:21 PM EST
Nautical Twilight 5:40 AM EST 4:59 PM EST
Astronomical Twilight 5:03 AM EST 5:35 PM EST
Moon 9:57 AM EST (11/28) 7:33 PM EST (11/28)
Length of Visible Light 10h 04m
Length of Day
8h 55m
Waxing Crescent, 15% of the Moon is Illuminated
Nov 28
Waxing Crescent
Dec 2
First Quarter
Dec 10
Full
Dec 17
Last Quarter
Dec 24
New

Hourly Weather History & Observations

Time (EST) Temp. Windchill Dew Point Humidity Pressure Visibility Wind Dir Wind Speed Gust Speed Precip Events Conditions
12:15 AM 37.4 °F 30.8 °F 33.8 °F 87% 29.95 in 9.0 mi SSE 9.2 mph - N/A   Overcast
12:35 AM 37.4 °F 30.3 °F 35.6 °F 93% 29.94 in 8.0 mi SSE 10.4 mph 16.1 mph N/A   Overcast
12:55 AM 37.4 °F 28.5 °F 35.6 °F 93% 29.92 in 9.0 mi SSE 15.0 mph 19.6 mph 0.01 in   Overcast
1:15 AM 39.2 °F 31.6 °F 35.6 °F 87% 29.91 in 10.0 mi SSE 12.7 mph 19.6 mph N/A   Overcast
1:35 AM 39.2 °F 32.0 °F 35.6 °F 87% 29.90 in 10.0 mi SSE 11.5 mph - N/A   Overcast
1:55 AM 39.2 °F 32.5 °F 37.4 °F 93% 29.89 in 10.0 mi SSE 10.4 mph - 0.01 in   Overcast
2:15 AM 41.0 °F 34.3 °F 37.4 °F 87% 29.88 in 10.0 mi SSE 11.5 mph - N/A   Overcast
2:35 AM 42.8 °F 38.0 °F 39.2 °F 87% 29.87 in 10.0 mi SSE 8.1 mph - 0.01 in   Overcast
2:55 AM 42.8 °F 36.6 °F 39.2 °F 87% 29.85 in 10.0 mi South 11.5 mph - 0.01 in   Overcast
3:15 AM 44.6 °F 38.8 °F 41.0 °F 87% 29.84 in 10.0 mi South 11.5 mph - N/A   Overcast
3:35 AM 44.6 °F 37.8 °F 42.8 °F 93% 29.83 in 10.0 mi South 15.0 mph - N/A   Overcast
3:55 AM 44.6 °F 39.2 °F 42.8 °F 93% 29.83 in 10.0 mi South 10.4 mph - N/A   Overcast
4:15 AM 44.6 °F 38.8 °F 42.8 °F 93% 29.81 in 10.0 mi South 11.5 mph - 0.01 in   Overcast
4:35 AM 46.4 °F 40.7 °F 42.8 °F 87% 29.80 in 10.0 mi South 12.7 mph - 0.01 in   Overcast
4:55 AM 46.4 °F 40.1 °F 44.6 °F 93% 29.80 in 10.0 mi South 15.0 mph - 0.01 in   Overcast
5:15 AM 46.4 °F 40.7 °F 44.6 °F 93% 29.79 in 10.0 mi South 12.7 mph - N/A   Overcast
5:35 AM 46.4 °F 40.4 °F 44.6 °F 93% 29.79 in 10.0 mi South 13.8 mph - N/A   Overcast
5:55 AM 46.4 °F 40.4 °F 44.6 °F 93% 29.78 in 10.0 mi South 13.8 mph - N/A   Overcast
6:15 AM 46.4 °F 41.1 °F 44.6 °F 93% 29.78 in 10.0 mi South 11.5 mph - N/A   Overcast
6:35 AM 46.4 °F 41.5 °F 44.6 °F 93% 29.78 in 10.0 mi South 10.4 mph - N/A   Overcast
6:55 AM 46.4 °F 41.9 °F 44.6 °F 93% 29.78 in 10.0 mi South 9.2 mph - N/A   Overcast
7:15 AM 46.4 °F 41.5 °F 44.6 °F 93% 29.78 in 10.0 mi South 10.4 mph - N/A   Overcast
7:35 AM 46.4 °F 41.1 °F 44.6 °F 93% 29.78 in 7.0 mi South 11.5 mph - N/A   Overcast
7:55 AM 46.4 °F 42.4 °F 44.6 °F 93% 29.78 in 9.0 mi South 8.1 mph - 0.01 in   Overcast
8:15 AM 46.4 °F 41.5 °F 44.6 °F 93% 29.76 in 9.0 mi South 10.4 mph - N/A   Mostly Cloudy
8:35 AM 46.4 °F 41.5 °F 44.6 °F 93% 29.75 in 10.0 mi South 10.4 mph - N/A   Overcast
8:55 AM 48.2 °F - 44.6 °F 87% 29.75 in 10.0 mi South 9.2 mph - N/A   Overcast
9:15 AM 48.2 °F - 44.6 °F 87% 29.75 in 10.0 mi South 10.4 mph - N/A   Overcast
9:35 AM 48.2 °F - 44.6 °F 87% 29.75 in 10.0 mi South 11.5 mph - N/A   Overcast
9:55 AM 48.2 °F - 46.4 °F 93% 29.76 in 10.0 mi SSW 10.4 mph - N/A   Overcast
10:15 AM 50.0 °F - 46.4 °F 87% 29.75 in 10.0 mi SSW 15.0 mph - N/A   Mostly Cloudy
10:35 AM 51.8 °F - 46.4 °F 82% 29.75 in 10.0 mi SSW 13.8 mph 24.2 mph N/A   Scattered Clouds
10:55 AM 51.8 °F - 46.4 °F 82% 29.75 in 10.0 mi SSW 17.3 mph - N/A   Mostly Cloudy
11:15 AM 51.8 °F - 48.2 °F 88% 29.75 in 10.0 mi SSW 15.0 mph 21.9 mph N/A   Overcast
11:35 AM 51.8 °F - 48.2 °F 88% 29.75 in 10.0 mi SW 15.0 mph 21.9 mph N/A   Overcast
11:55 AM 51.8 °F - 46.4 °F 82% 29.75 in 10.0 mi SSW 10.4 mph - N/A   Mostly Cloudy
12:15 PM 51.8 °F - 48.2 °F 88% 29.74 in 10.0 mi SW 13.8 mph 17.3 mph N/A   Overcast
12:35 PM 53.6 °F - 46.4 °F 77% 29.75 in 10.0 mi WSW 10.4 mph - N/A   Mostly Cloudy
12:55 PM 51.8 °F - 48.2 °F 88% 29.76 in 10.0 mi WSW 9.2 mph - N/A   Overcast
1:15 PM 51.8 °F - 46.4 °F 82% 29.78 in 10.0 mi WNW 12.7 mph 18.4 mph N/A   Overcast
1:35 PM 51.8 °F - 42.8 °F 71% 29.79 in 10.0 mi West 12.7 mph 24.2 mph N/A   Overcast
1:55 PM 51.8 °F - 42.8 °F 71% 29.81 in 10.0 mi West 12.7 mph 17.3 mph N/A   Overcast
2:15 PM 50.0 °F - 41.0 °F 71% 29.83 in 10.0 mi West 10.4 mph - N/A   Overcast
2:35 PM 48.2 °F - 39.2 °F 71% 29.84 in 10.0 mi West 13.8 mph - N/A   Mostly Cloudy
2:55 PM 48.2 °F - 37.4 °F 66% 29.84 in 10.0 mi West 17.3 mph 24.2 mph N/A   Scattered Clouds
3:15 PM 46.4 °F 38.7 °F 35.6 °F 66% 29.86 in 10.0 mi West 20.7 mph 29.9 mph N/A   Partly Cloudy
3:35 PM 46.4 °F 40.4 °F 35.6 °F 66% 29.87 in 10.0 mi WNW 13.8 mph 21.9 mph N/A   Mostly Cloudy
3:55 PM 46.4 °F 41.5 °F 35.6 °F 66% 29.89 in 10.0 mi WNW 10.4 mph - N/A   Mostly Cloudy
4:15 PM 44.6 °F 37.8 °F 32.0 °F 61% 29.90 in 10.0 mi West 15.0 mph 24.2 mph N/A   Clear
4:35 PM 44.6 °F 39.2 °F 32.0 °F 61% 29.91 in 10.0 mi West 10.4 mph - N/A   Mostly Cloudy
4:55 PM 44.6 °F 39.2 °F 32.0 °F 61% 29.92 in 10.0 mi WSW 10.4 mph - N/A   Overcast
5:15 PM 42.8 °F 37.0 °F 32.0 °F 66% 29.94 in 10.0 mi West 10.4 mph - N/A   Overcast
5:35 PM 42.8 °F 36.6 °F 30.2 °F 61% 29.95 in 10.0 mi West 11.5 mph 16.1 mph N/A   Mostly Cloudy
5:55 PM 41.0 °F 35.8 °F 30.2 °F 65% 29.97 in 10.0 mi WSW 8.1 mph - N/A   Partly Cloudy
6:15 PM 39.2 °F 31.2 °F 30.2 °F 70% 29.99 in 10.0 mi West 13.8 mph - N/A   Partly Cloudy
6:35 PM 39.2 °F 34.2 °F 30.2 °F 70% 29.99 in 10.0 mi West 6.9 mph - N/A   Partly Cloudy
6:55 PM 39.2 °F 34.2 °F 28.4 °F 65% 30.00 in 10.0 mi West 6.9 mph - N/A   Clear
7:15 PM 39.2 °F 34.2 °F 28.4 °F 65% 30.01 in 10.0 mi West 6.9 mph - N/A   Clear
7:35 PM 37.4 °F 33.8 °F 28.4 °F 70% 30.02 in 10.0 mi WSW 4.6 mph - N/A   Clear
7:55 PM 37.4 °F 32.8 °F 28.4 °F 70% 30.03 in 10.0 mi WSW 5.8 mph - N/A   Mostly Cloudy
8:15 PM 37.4 °F 32.8 °F 28.4 °F 70% 30.04 in 10.0 mi North 5.8 mph - N/A   Overcast
8:35 PM 37.4 °F 30.8 °F 28.4 °F 70% 30.05 in 10.0 mi North 9.2 mph - N/A   Overcast
8:55 PM 37.4 °F 30.3 °F 28.4 °F 70% 30.05 in 10.0 mi North 10.4 mph - N/A   Overcast
9:15 PM 35.6 °F 30.7 °F 28.4 °F 75% 30.06 in 10.0 mi North 5.8 mph - N/A   Overcast
9:35 PM 35.6 °F 29.9 °F 28.4 °F 75% 30.05 in 10.0 mi North 6.9 mph - N/A   Overcast
9:55 PM 35.6 °F 28.0 °F 26.6 °F 70% 30.06 in 10.0 mi North 10.4 mph - N/A   Overcast
10:15 PM 33.8 °F 27.0 °F 24.8 °F 70% 30.07 in 10.0 mi North 8.1 mph - N/A   Overcast
10:35 PM 33.8 °F 27.7 °F 24.8 °F 70% 30.06 in 10.0 mi North 6.9 mph - N/A   Overcast
10:55 PM 33.8 °F - 24.8 °F 70% 30.07 in 10.0 mi Calm Calm - N/A   Overcast
11:15 PM 33.8 °F - 24.8 °F 70% 30.08 in 10.0 mi Calm Calm - N/A   Overcast
11:35 PM 33.8 °F 30.8 °F 24.8 °F 70% 30.09 in 10.0 mi West 3.5 mph - N/A   Overcast
11:55 PM 33.8 °F - 24.8 °F 70% 30.11 in 10.0 mi Calm Calm - N/A   Overcast